Time;durP1;ratioP1;P1;durP2;ratioP2;P2;SDS_P1;SDS_P2;PMS_P1;PMS_P2;Temp;Humidity;BMP_temperature;BMP_pressure;BME280_temperature;BME280_humidity;BME280_pressure;Samples;Min_cycle;Max_cycle;Signal;HPM_P1;HPM_P2
2022/09/14 00:01:16;;;;;;;5.13;1.42;;;15.10;97.60;;;;;;5036637;28;20034;-69
2022/09/14 00:03:42;;;;;;;5.10;1.50;;;15.00;97.60;;;;;;5038911;28;20029;-70
2022/09/14 00:06:11;;;;;;;3.20;1.20;;;15.00;97.60;;;;;;5042606;28;20547;-70
2022/09/14 00:08:37;;;;;;;3.53;1.50;;;15.00;97.60;;;;;;5043362;28;20040;-69
2022/09/14 00:11:10;;;;;;;3.42;1.20;;;15.00;97.60;;;;;;5041291;28;20490;-69
2022/09/14 00:13:37;;;;;;;3.20;1.30;;;15.00;97.50;;;;;;5041734;28;20491;-70
2022/09/14 00:16:05;;;;;;;4.95;1.42;;;14.90;97.50;;;;;;5040618;28;20048;-70
2022/09/14 00:18:32;;;;;;;2.83;1.58;;;14.90;97.60;;;;;;5039279;28;20021;-70
2022/09/14 00:21:00;;;;;;;6.45;1.67;;;14.90;97.60;;;;;;5038383;28;20044;-71
2022/09/14 00:23:26;;;;;;;1.55;1.00;;;14.90;97.50;;;;;;5041179;28;20508;-69
2022/09/14 00:25:51;;;;;;;6.10;1.60;;;14.80;97.30;;;;;;5044460;28;20025;-70
2022/09/14 00:28:17;;;;;;;4.20;1.45;;;14.80;97.20;;;;;;5038254;28;20048;-70
2022/09/14 00:30:43;;;;;;;5.80;1.63;;;14.80;97.10;;;;;;5042590;28;20024;-70
2022/09/14 00:33:09;;;;;;;4.53;1.50;;;14.70;97.10;;;;;;5038718;28;20041;-70
2022/09/14 00:35:35;;;;;;;7.78;2.15;;;14.70;97.00;;;;;;5040469;28;20135;-70
2022/09/14 00:38:01;;;;;;;2.72;1.48;;;14.60;97.10;;;;;;5035281;28;20025;-69
2022/09/14 00:40:26;;;;;;;3.88;1.38;;;14.60;97.10;;;;;;5037076;28;20013;-69
2022/09/14 00:42:52;;;;;;;8.30;1.73;;;14.60;97.20;;;;;;5040503;28;20079;-69
2022/09/14 00:45:20;;;;;;;6.05;1.40;;;14.60;97.30;;;;;;5043533;28;20531;-69
2022/09/14 00:47:49;;;;;;;5.47;2.33;;;14.50;97.50;;;;;;5042853;28;20043;-69
2022/09/14 00:50:16;;;;;;;2.63;1.25;;;14.60;97.60;;;;;;5035794;28;20041;-70
2022/09/14 00:52:46;;;;;;;1.67;1.30;;;14.60;97.60;;;;;;5035655;28;20033;-70
2022/09/14 00:55:16;;;;;;;5.35;1.38;;;14.60;97.60;;;;;;5032939;28;20075;-70
2022/09/14 00:57:48;;;;;;;6.05;1.60;;;14.60;97.60;;;;;;5032317;28;20140;-70
2022/09/14 01:00:18;;;;;;;4.15;1.45;;;14.60;97.50;;;;;;5031314;28;20036;-69
2022/09/14 01:02:44;;;;;;;2.22;1.30;;;14.50;97.40;;;;;;5040640;28;20641;-69
2022/09/14 01:05:11;;;;;;;7.60;1.70;;;14.60;97.50;;;;;;5032749;28;20128;-70
2022/09/14 01:07:51;;;;;;;4.03;1.80;;;14.60;97.60;;;;;;5041634;28;20106;-70
2022/09/14 01:10:42;;;;;;;3.67;1.75;;;14.60;97.70;;;;;;5039487;28;20049;-70
2022/09/14 01:13:33;;;;;;;4.78;1.70;;;14.60;97.80;;;;;;5033338;28;20439;-69
2022/09/14 01:16:37;;;;;;;1.65;1.33;;;14.50;98.00;;;;;;5038940;28;20401;-69
2022/09/14 01:19:21;;;;;;;2.03;1.65;;;14.50;97.90;;;;;;5031503;28;20029;-68
2022/09/14 01:21:49;;;;;;;1.58;1.40;;;14.50;97.70;;;;;;5042439;28;20032;-70
2022/09/14 01:25:00;;;;;;;4.68;1.45;;;14.50;97.50;;;;;;5037714;28;20021;-69
2022/09/14 01:27:40;;;;;;;8.45;1.52;;;14.50;97.60;;;;;;5033485;28;20033;-70
2022/09/14 01:30:12;;;;;;;3.58;1.70;;;14.50;97.50;;;;;;5036451;28;20037;-70
2022/09/14 01:32:50;;;;;;;1.98;1.25;;;14.50;97.50;;;;;;5036338;28;20036;-70
2022/09/14 01:35:30;;;;;;;4.45;1.45;;;14.40;97.50;;;;;;5034852;28;20034;-70
2022/09/14 01:38:09;;;;;;;5.75;1.90;;;14.40;97.50;;;;;;5031956;28;20036;-70
2022/09/14 01:40:45;;;;;;;5.10;1.73;;;14.40;97.50;;;;;;5039711;28;20071;-70
2022/09/14 01:43:24;;;;;;;2.15;1.50;;;14.40;97.40;;;;;;5039885;28;20040;-70
2022/09/14 01:45:58;;;;;;;2.03;1.35;;;14.40;97.30;;;;;;5038575;28;20040;-70
2022/09/14 01:48:31;;;;;;;3.35;1.58;;;14.40;97.30;;;;;;5038424;28;20052;-70
2022/09/14 01:51:03;;;;;;;4.68;1.65;;;14.40;97.30;;;;;;5035441;28;20037;-70
2022/09/14 01:53:36;;;;;;;3.88;1.67;;;14.30;97.40;;;;;;5035855;28;20041;-70
2022/09/14 01:56:21;;;;;;;3.50;1.60;;;14.40;97.50;;;;;;5032766;28;20047;-70
2022/09/14 01:58:47;;;;;;;8.20;1.88;;;14.30;97.50;;;;;;5038396;28;20033;-70
2022/09/14 02:01:22;;;;;;;6.78;1.85;;;14.30;97.60;;;;;;5039923;28;20891;-70
2022/09/14 02:03:55;;;;;;;3.90;1.58;;;14.30;97.60;;;;;;5038133;28;20480;-70
2022/09/14 02:06:30;;;;;;;3.25;1.70;;;14.30;97.60;;;;;;5037632;28;20045;-70
2022/09/14 02:08:57;;;;;;;2.78;1.80;;;14.30;97.80;;;;;;5034602;28;20083;-70
2022/09/14 02:11:23;;;;;;;2.13;1.63;;;14.30;97.80;;;;;;5035210;28;20681;-71
2022/09/14 02:13:49;;;;;;;3.60;1.40;;;14.30;97.80;;;;;;5032407;28;20033;-70
2022/09/14 02:16:15;;;;;;;2.00;1.35;;;14.30;97.90;;;;;;5036189;28;20060;-68
2022/09/14 02:18:42;;;;;;;2.63;1.73;;;14.30;97.90;;;;;;5039898;28;20028;-68
2022/09/14 02:21:32;;;;;;;2.97;1.55;;;14.30;97.80;;;;;;5039205;28;20033;-69
2022/09/14 02:23:59;;;;;;;3.42;1.60;;;14.30;97.70;;;;;;5035025;28;20719;-69
2022/09/14 02:26:25;;;;;;;4.10;1.85;;;14.30;97.50;;;;;;5037888;28;20064;-69
2022/09/14 02:28:54;;;;;;;2.55;1.70;;;14.20;97.20;;;;;;5034973;28;20079;-69
2022/09/14 02:31:39;;;;;;;3.65;1.63;;;14.20;97.40;;;;;;5035279;28;20040;-69
2022/09/14 02:34:26;;;;;;;4.68;1.63;;;14.10;97.10;;;;;;5032305;28;20033;-70
2022/09/14 02:37:04;;;;;;;3.47;1.45;;;14.10;97.30;;;;;;5042283;28;20043;-69
2022/09/14 02:39:47;;;;;;;4.53;2.00;;;14.10;97.40;;;;;;5036960;28;20040;-70
2022/09/14 02:42:33;;;;;;;2.88;1.67;;;14.00;97.50;;;;;;5037241;28;20068;-70
2022/09/14 02:45:34;;;;;;;3.13;1.43;;;14.10;97.50;;;;;;5036267;28;20029;-73
2022/09/14 02:48:03;;;;;;;4.50;1.33;;;14.00;97.60;;;;;;5034933;28;20271;-70
2022/09/14 02:50:50;;;;;;;3.00;1.80;;;14.00;97.70;;;;;;5035543;28;20029;-70
2022/09/14 02:53:23;;;;;;;2.42;1.70;;;14.00;97.60;;;;;;5032808;28;20103;-70
2022/09/14 02:55:57;;;;;;;3.60;1.65;;;14.00;97.50;;;;;;5040808;28;20482;-68
2022/09/14 02:58:23;;;;;;;3.20;1.30;;;14.00;97.50;;;;;;5039538;28;20013;-69
2022/09/14 03:00:50;;;;;;;3.47;1.40;;;14.00;97.50;;;;;;5038902;28;20086;-69
2022/09/14 03:03:20;;;;;;;4.18;1.60;;;14.00;97.70;;;;;;5038280;28;20029;-69
2022/09/14 03:05:46;;;;;;;3.67;1.85;;;14.00;97.80;;;;;;5036046;28;20035;-69
2022/09/14 03:08:12;;;;;;;3.35;1.83;;;14.00;97.80;;;;;;5033508;28;20496;-69
2022/09/14 03:10:41;;;;;;;5.45;1.85;;;14.00;97.80;;;;;;5032334;28;20032;-70
2022/09/14 03:13:07;;;;;;;2.42;1.52;;;14.10;97.90;;;;;;5034802;28;20649;-69
2022/09/14 03:15:33;;;;;;;4.25;1.90;;;14.10;97.80;;;;;;5041100;28;20059;-70
2022/09/14 03:17:58;;;;;;;2.45;2.03;;;14.10;97.70;;;;;;5038475;28;20020;-69
2022/09/14 03:20:30;;;;;;;2.83;1.75;;;14.10;97.70;;;;;;5037994;28;20503;-69
2022/09/14 03:22:58;;;;;;;2.55;1.48;;;14.10;97.80;;;;;;5033299;28;20036;-69
2022/09/14 03:25:24;;;;;;;2.53;1.55;;;14.10;97.90;;;;;;5036092;28;20096;-69
2022/09/14 03:27:54;;;;;;;6.68;2.22;;;14.10;98.00;;;;;;5032882;28;20719;-69
2022/09/14 03:30:20;;;;;;;4.20;1.70;;;14.10;97.80;;;;;;5032540;28;20040;-70
2022/09/14 03:32:46;;;;;;;3.13;1.42;;;14.10;97.70;;;;;;5036343;28;20041;-69
2022/09/14 03:35:13;;;;;;;2.42;1.45;;;14.10;97.50;;;;;;5039128;28;20091;-69
2022/09/14 03:37:40;;;;;;;1.95;1.15;;;14.10;97.20;;;;;;5038690;28;20796;-69
2022/09/14 03:40:07;;;;;;;3.38;1.60;;;14.00;97.10;;;;;;5035973;28;20046;-69
2022/09/14 03:42:33;;;;;;;3.08;1.20;;;14.00;97.00;;;;;;5036389;28;20031;-69
2022/09/14 03:44:59;;;;;;;2.60;1.60;;;14.00;96.90;;;;;;5032945;28;20037;-69
2022/09/14 03:47:25;;;;;;;3.53;1.45;;;13.90;96.80;;;;;;5033862;28;20035;-68
2022/09/14 03:49:51;;;;;;;2.08;1.38;;;13.90;96.80;;;;;;5029000;28;20537;-70
2022/09/14 03:52:17;;;;;;;2.88;1.27;;;13.80;96.80;;;;;;5038970;28;20044;-69
2022/09/14 03:54:43;;;;;;;2.05;1.40;;;13.80;97.00;;;;;;5039380;28;20119;-68
2022/09/14 03:57:09;;;;;;;3.00;1.48;;;13.80;97.00;;;;;;5037191;28;20112;-70
2022/09/14 03:59:34;;;;;;;2.47;1.30;;;13.80;97.00;;;;;;5037249;28;20111;-70
2022/09/14 04:02:01;;;;;;;5.93;2.20;;;13.80;97.10;;;;;;5036212;28;20021;-70
2022/09/14 04:04:27;;;;;;;5.47;1.50;;;13.80;97.10;;;;;;5034969;28;20417;-69
2022/09/14 04:06:53;;;;;;;3.00;1.50;;;13.70;97.10;;;;;;5034564;28;20094;-70
2022/09/14 04:09:19;;;;;;;2.80;1.27;;;13.70;97.20;;;;;;5032371;28;20120;-71
2022/09/14 04:11:46;;;;;;;4.00;1.50;;;13.70;97.30;;;;;;5040238;28;20040;-70
2022/09/14 04:14:12;;;;;;;3.22;1.35;;;13.70;97.40;;;;;;5036472;28;20728;-71
2022/09/14 04:16:39;;;;;;;3.28;1.40;;;13.70;97.50;;;;;;5037898;28;20029;-69
2022/09/14 04:19:05;;;;;;;1.92;1.35;;;13.70;97.60;;;;;;5034281;28;20033;-70
2022/09/14 04:21:31;;;;;;;3.55;1.70;;;13.80;97.70;;;;;;5035037;28;20032;-70
2022/09/14 04:23:58;;;;;;;2.45;1.35;;;13.80;97.70;;;;;;5031354;28;20497;-70
2022/09/14 04:26:26;;;;;;;2.28;1.63;;;13.80;97.70;;;;;;5031141;28;20175;-71
2022/09/14 04:28:52;;;;;;;3.50;1.52;;;13.80;97.50;;;;;;5030296;28;20783;-70
2022/09/14 04:31:18;;;;;;;2.60;1.33;;;13.70;97.40;;;;;;5038464;28;20501;-70
2022/09/14 04:33:45;;;;;;;2.33;1.42;;;13.80;97.40;;;;;;5037680;28;20118;-69
2022/09/14 04:36:13;;;;;;;1.73;1.55;;;13.70;97.30;;;;;;5035411;28;20112;-70
2022/09/14 04:38:41;;;;;;;2.70;1.30;;;13.70;97.40;;;;;;5035370;28;20099;-70
2022/09/14 04:41:09;;;;;;;3.15;1.75;;;13.70;97.50;;;;;;5034922;28;20029;-70
2022/09/14 04:43:35;;;;;;;1.60;1.50;;;13.70;97.50;;;;;;5037093;28;20105;-71
2022/09/14 04:46:06;;;;;;;2.90;1.50;;;13.70;97.60;;;;;;5032955;28;20030;-70
2022/09/14 04:48:34;;;;;;;1.95;1.58;;;13.70;97.70;;;;;;5035800;28;20028;-70
2022/09/14 04:51:24;;;;;;;5.50;2.50;;;13.80;97.80;;;;;;5041465;28;20041;-73
2022/09/14 04:53:53;;;;;;;4.72;1.60;;;13.80;97.80;;;;;;5038576;28;20021;-70
2022/09/14 04:56:23;;;;;;;5.18;1.70;;;13.80;97.80;;;;;;5038804;28;20869;-70
2022/09/14 04:58:51;;;;;;;5.53;1.65;;;13.80;97.90;;;;;;5037168;28;20075;-69
2022/09/14 05:01:19;;;;;;;4.68;2.00;;;13.80;97.90;;;;;;5035723;28;20029;-70
2022/09/14 05:03:45;;;;;;;4.05;2.03;;;13.80;98.00;;;;;;5038047;28;20017;-69
2022/09/14 05:06:14;;;;;;;3.90;1.95;;;13.80;98.00;;;;;;5037402;28;20040;-69
2022/09/14 05:08:40;;;;;;;2.92;1.85;;;13.90;97.90;;;;;;5042178;28;20496;-70
2022/09/14 05:11:07;;;;;;;5.32;1.80;;;13.90;97.60;;;;;;5040627;28;20586;-70
2022/09/14 05:13:34;;;;;;;1.88;1.55;;;13.90;97.50;;;;;;5039739;28;20060;-69
2022/09/14 05:16:13;;;;;;;2.63;1.70;;;13.90;97.50;;;;;;5039139;28;20041;-68
2022/09/14 05:18:39;;;;;;;4.97;1.67;;;13.90;97.50;;;;;;5036385;28;20916;-69
2022/09/14 05:21:07;;;;;;;2.80;1.73;;;13.90;97.60;;;;;;5033366;28;20037;-69
2022/09/14 05:23:33;;;;;;;2.70;1.50;;;13.90;97.80;;;;;;5035233;28;20040;-69
2022/09/14 05:26:00;;;;;;;2.63;1.70;;;13.90;97.80;;;;;;5039656;28;20503;-69
2022/09/14 05:28:26;;;;;;;3.50;2.05;;;14.00;97.80;;;;;;5038003;28;20064;-69
2022/09/14 05:30:52;;;;;;;2.10;1.25;;;14.00;97.80;;;;;;5040566;28;20036;-69
2022/09/14 05:33:19;;;;;;;4.15;1.67;;;14.00;97.90;;;;;;5037313;28;20040;-69
2022/09/14 05:35:46;;;;;;;2.42;1.60;;;14.10;98.00;;;;;;5037897;28;20163;-69
2022/09/14 05:38:11;;;;;;;5.72;2.10;;;14.10;98.00;;;;;;5034487;28;20101;-69
2022/09/14 05:40:37;;;;;;;6.15;1.65;;;14.20;98.10;;;;;;5035334;28;20029;-69
2022/09/14 05:43:03;;;;;;;4.85;2.90;;;14.20;98.00;;;;;;5031326;28;20029;-70
2022/09/14 05:45:29;;;;;;;2.95;1.80;;;14.30;97.90;;;;;;5041581;28;20562;-69
2022/09/14 05:47:54;;;;;;;7.22;1.77;;;14.40;97.80;;;;;;5040806;28;20032;-69
2022/09/14 05:50:22;;;;;;;3.45;1.80;;;14.40;97.70;;;;;;5038589;28;20124;-69
2022/09/14 05:52:47;;;;;;;2.92;1.60;;;14.50;97.80;;;;;;5037354;28;20035;-70
2022/09/14 05:55:13;;;;;;;3.05;2.00;;;14.50;97.70;;;;;;5030695;28;20033;-69
2022/09/14 05:57:39;;;;;;;3.50;1.92;;;14.60;97.90;;;;;;5036561;28;20118;-70
2022/09/14 06:00:05;;;;;;;1.90;1.70;;;14.70;97.90;;;;;;5033612;28;20033;-70
2022/09/14 06:02:37;;;;;;;2.22;1.70;;;14.70;98.00;;;;;;5037741;28;20021;-70
2022/09/14 06:05:03;;;;;;;3.35;1.73;;;14.80;97.90;;;;;;5041499;28;20061;-69
2022/09/14 06:07:29;;;;;;;2.17;1.73;;;14.90;97.90;;;;;;5041760;28;20033;-70
2022/09/14 06:09:55;;;;;;;4.00;1.73;;;15.00;97.90;;;;;;5039131;28;20485;-69
2022/09/14 06:12:21;;;;;;;2.97;1.90;;;15.00;98.00;;;;;;5038727;28;20059;-69
2022/09/14 06:14:46;;;;;;;2.35;2.00;;;15.10;98.00;;;;;;5038680;28;20120;-70
2022/09/14 06:17:12;;;;;;;5.45;1.98;;;15.20;98.00;;;;;;5036854;28;20098;-69
2022/09/14 06:19:38;;;;;;;3.88;1.90;;;15.20;97.90;;;;;;5034965;28;20049;-69
2022/09/14 06:22:04;;;;;;;5.05;2.42;;;15.20;97.80;;;;;;5035702;28;20114;-70
2022/09/14 06:24:29;;;;;;;7.03;1.90;;;15.30;97.60;;;;;;5040535;28;20066;-70
2022/09/14 06:26:55;;;;;;;3.80;2.30;;;15.40;97.50;;;;;;5038242;28;20438;-70
2022/09/14 06:29:21;;;;;;;2.85;1.60;;;15.40;97.40;;;;;;5037361;28;20033;-69
2022/09/14 06:31:46;;;;;;;2.42;1.88;;;15.50;97.30;;;;;;5031036;28;20490;-70
2022/09/14 06:34:12;;;;;;;3.78;1.77;;;15.50;97.40;;;;;;5034050;28;20124;-69
2022/09/14 06:36:38;;;;;;;5.15;1.95;;;15.50;97.30;;;;;;5037462;28;20538;-70
2022/09/14 06:39:03;;;;;;;4.88;2.17;;;15.60;97.40;;;;;;5030405;28;20029;-69
2022/09/14 06:41:31;;;;;;;5.18;2.10;;;15.70;97.40;;;;;;5037698;28;20576;-69
2022/09/14 06:44:00;;;;;;;4.47;1.92;;;15.80;97.30;;;;;;5039699;28;20029;-69
2022/09/14 06:46:31;;;;;;;4.03;1.83;;;15.90;97.20;;;;;;5036554;28;20108;-68
2022/09/14 06:49:06;;;;;;;3.35;1.60;;;16.00;97.10;;;;;;5037387;28;20448;-68
2022/09/14 06:51:33;;;;;;;4.40;1.55;;;16.10;96.90;;;;;;5036637;28;20033;-71
2022/09/14 06:54:00;;;;;;;1.63;1.40;;;16.10;96.70;;;;;;5033764;28;20127;-69
2022/09/14 06:56:37;;;;;;;2.08;1.55;;;16.20;96.70;;;;;;5033982;28;20503;-70
2022/09/14 06:59:04;;;;;;;1.50;1.40;;;16.30;96.60;;;;;;5035312;28;20029;-69
2022/09/14 07:01:30;;;;;;;5.43;1.98;;;16.30;96.50;;;;;;5041196;28;20436;-68
2022/09/14 07:03:57;;;;;;;4.25;1.80;;;16.40;96.20;;;;;;5039154;28;20025;-68
2022/09/14 07:06:25;;;;;;;7.00;1.67;;;16.50;96.00;;;;;;5037603;28;20041;-68
2022/09/14 07:08:52;;;;;;;3.25;1.63;;;16.50;95.80;;;;;;5036653;28;20060;-72
2022/09/14 07:11:20;;;;;;;8.52;1.67;;;16.60;95.80;;;;;;5035722;28;20120;-71
2022/09/14 07:13:47;;;;;;;3.53;1.23;;;16.60;95.50;;;;;;5034176;28;20152;-69
2022/09/14 07:16:13;;;;;;;2.88;1.55;;;16.70;95.50;;;;;;5035480;28;20030;-69
2022/09/14 07:18:40;;;;;;;3.42;1.45;;;16.70;95.40;;;;;;5036858;28;20116;-72
2022/09/14 07:21:11;;;;;;;4.82;1.48;;;16.70;95.40;;;;;;5039757;28;20029;-72
2022/09/14 07:23:39;;;;;;;7.25;1.58;;;16.80;95.40;;;;;;5039231;28;20716;-69
2022/09/14 07:26:14;;;;;;;4.20;1.38;;;16.90;95.10;;;;;;5036343;28;20036;-69
2022/09/14 07:28:41;;;;;;;4.57;1.50;;;16.90;94.90;;;;;;5037017;28;20040;-70
2022/09/14 07:31:24;;;;;;;6.63;1.77;;;17.00;94.60;;;;;;5033155;28;20858;-69
2022/09/14 07:33:55;;;;;;;4.20;1.75;;;17.00;94.50;;;;;;5034236;28;20033;-68
2022/09/14 07:36:22;;;;;;;6.40;2.28;;;17.00;94.30;;;;;;5032412;28;20606;-69
2022/09/14 07:38:47;;;;;;;7.32;1.80;;;17.10;94.30;;;;;;5040389;28;20039;-68
2022/09/14 07:41:13;;;;;;;3.75;1.77;;;17.20;94.30;;;;;;5038510;28;20033;-68
2022/09/14 07:43:39;;;;;;;3.60;1.45;;;17.30;94.10;;;;;;5039948;28;20021;-70
2022/09/14 07:46:06;;;;;;;5.03;1.50;;;17.40;93.70;;;;;;5037308;28;20512;-70
2022/09/14 07:48:33;;;;;;;8.82;1.50;;;17.50;93.50;;;;;;5036010;28;20040;-69
2022/09/14 07:51:04;;;;;;;4.55;1.35;;;17.60;93.30;;;;;;5032026;28;20048;-69
2022/09/14 07:53:31;;;;;;;4.88;1.63;;;17.70;93.40;;;;;;5039995;28;20192;-69
2022/09/14 07:56:00;;;;;;;5.38;1.60;;;17.80;93.60;;;;;;5032247;28;20091;-69
2022/09/14 07:58:29;;;;;;;7.28;1.60;;;17.90;93.40;;;;;;5035716;28;20218;-69
2022/09/14 08:01:03;;;;;;;5.88;1.70;;;18.00;92.80;;;;;;5036923;28;20033;-69
2022/09/14 08:03:30;;;;;;;5.13;1.52;;;18.00;92.20;;;;;;5037513;28;20044;-69
2022/09/14 08:06:04;;;;;;;6.00;1.70;;;18.00;92.10;;;;;;5035275;28;20079;-70
2022/09/14 08:08:34;;;;;;;7.68;1.98;;;18.10;92.10;;;;;;5032983;28;20071;-69
2022/09/14 08:11:10;;;;;;;7.93;1.83;;;18.10;91.90;;;;;;5030970;28;20047;-70
2022/09/14 08:13:37;;;;;;;5.50;1.77;;;18.20;92.10;;;;;;5033173;28;20049;-70
2022/09/14 08:16:04;;;;;;;5.78;1.73;;;18.30;91.40;;;;;;5039135;28;20044;-69
2022/09/14 08:18:32;;;;;;;4.07;1.77;;;18.30;91.20;;;;;;5042846;28;20041;-69
2022/09/14 08:21:04;;;;;;;4.63;1.83;;;18.30;91.30;;;;;;5041319;28;20382;-68
2022/09/14 08:23:30;;;;;;;8.95;1.88;;;18.30;91.40;;;;;;5039571;28;20032;-69
2022/09/14 08:26:00;;;;;;;6.25;1.42;;;18.50;91.10;;;;;;5038156;28;20040;-69
2022/09/14 08:28:26;;;;;;;7.65;1.80;;;18.60;91.00;;;;;;5037487;28;20049;-69
2022/09/14 08:30:51;;;;;;;6.72;1.63;;;18.60;91.10;;;;;;5035651;28;20044;-69
2022/09/14 08:33:17;;;;;;;5.28;1.25;;;18.70;90.70;;;;;;5039501;28;20475;-69
2022/09/14 08:35:43;;;;;;;4.78;1.33;;;18.80;90.30;;;;;;5037873;28;20041;-69
2022/09/14 08:38:09;;;;;;;10.80;1.40;;;18.80;89.90;;;;;;5039444;28;20434;-69
2022/09/14 08:40:45;;;;;;;8.80;1.65;;;18.90;90.00;;;;;;5042693;28;20075;-70
2022/09/14 08:43:13;;;;;;;6.35;1.45;;;19.00;89.80;;;;;;5037806;28;20045;-70
2022/09/14 08:45:41;;;;;;;8.65;1.70;;;19.10;88.60;;;;;;5036895;28;20048;-69
2022/09/14 08:48:20;;;;;;;5.97;2.08;;;19.10;88.20;;;;;;5034967;28;20124;-69
2022/09/14 08:50:47;;;;;;;4.53;1.25;;;19.20;87.80;;;;;;5033894;28;20048;-71
2022/09/14 08:53:13;;;;;;;6.30;1.90;;;19.20;87.30;;;;;;5037388;28;20120;-69
2022/09/14 08:55:49;;;;;;;9.75;2.20;;;19.20;87.00;;;;;;5041368;28;20279;-69
2022/09/14 08:58:24;;;;;;;5.70;1.38;;;19.20;86.40;;;;;;5039421;28;20035;-70
2022/09/14 09:01:14;;;;;;;8.45;2.03;;;19.20;86.10;;;;;;5037624;28;20033;-69
2022/09/14 09:03:54;;;;;;;6.82;1.13;;;19.20;86.70;;;;;;5038068;28;20123;-69
2022/09/14 09:06:41;;;;;;;5.38;1.35;;;19.20;86.40;;;;;;5037195;28;20076;-70
2022/09/14 09:09:31;;;;;;;9.35;1.77;;;19.20;85.80;;;;;;5033210;28;20144;-69
2022/09/14 09:11:57;;;;;;;3.05;0.95;;;19.20;85.50;;;;;;5039168;28;20041;-70
2022/09/14 09:14:38;;;;;;;5.63;1.30;;;19.20;85.40;;;;;;5041375;28;20032;-69
2022/09/14 09:17:32;;;;;;;6.68;1.65;;;19.20;85.90;;;;;;5038197;28;20959;-69
2022/09/14 09:20:16;;;;;;;6.00;1.40;;;19.20;86.60;;;;;;5039221;28;20044;-69
2022/09/14 09:23:08;;;;;;;5.68;1.33;;;19.20;85.70;;;;;;5038607;28;20037;-69
2022/09/14 09:26:18;;;;;;;3.17;1.00;;;19.20;85.30;;;;;;5037735;28;20595;-69
2022/09/14 09:28:50;;;;;;;7.45;1.38;;;19.20;84.60;;;;;;5036991;28;20037;-70
2022/09/14 09:31:18;;;;;;;8.00;1.20;;;19.30;85.20;;;;;;5042538;28;20037;-72
2022/09/14 09:34:10;;;;;;;7.00;1.42;;;19.30;84.20;;;;;;5040320;28;20041;-69
2022/09/14 09:36:40;;;;;;;13.30;1.83;;;19.40;83.80;;;;;;5042891;28;20040;-69
2022/09/14 09:39:06;;;;;;;4.38;1.30;;;19.40;82.80;;;;;;5036908;28;20026;-69
2022/09/14 09:41:59;;;;;;;3.88;1.38;;;19.30;83.40;;;;;;5039068;28;20021;-69
2022/09/14 09:44:25;;;;;;;5.65;1.30;;;19.40;84.00;;;;;;5037039;28;20120;-70
2022/09/14 09:46:58;;;;;;;3.53;1.02;;;19.30;83.00;;;;;;5037747;28;20044;-69
2022/09/14 09:49:36;;;;;;;9.05;1.50;;;19.40;83.00;;;;;;5039071;28;20036;-69
2022/09/14 09:52:13;;;;;;;5.50;1.27;;;19.40;84.20;;;;;;5039297;28;20064;-70
2022/09/14 09:54:41;;;;;;;8.90;1.73;;;19.50;83.00;;;;;;5041380;28;20033;-69
2022/09/14 09:57:22;;;;;;;5.80;1.52;;;19.60;81.70;;;;;;5038152;28;20037;-69
2022/09/14 09:59:48;;;;;;;8.32;2.05;;;19.60;81.40;;;;;;5037492;28;20036;-69
2022/09/14 10:02:22;;;;;;;8.15;1.45;;;19.60;80.50;;;;;;5039203;28;20028;-70
2022/09/14 10:04:55;;;;;;;6.53;1.75;;;19.60;80.90;;;;;;5034977;28;20545;-70
2022/09/14 10:07:21;;;;;;;7.60;1.77;;;19.60;81.40;;;;;;5034782;28;20040;-70
2022/09/14 10:10:09;;;;;;;9.98;1.80;;;19.60;80.60;;;;;;5042445;28;20028;-69
2022/09/14 10:12:38;;;;;;;4.20;1.55;;;19.60;80.30;;;;;;5039782;28;20025;-70
2022/09/14 10:15:17;;;;;;;4.90;1.42;;;19.60;80.40;;;;;;5040643;28;20055;-71
2022/09/14 10:18:22;;;;;;;4.55;1.20;;;19.70;79.80;;;;;;5041452;28;20037;-71
2022/09/14 10:20:51;;;;;;;5.13;1.35;;;19.90;79.70;;;;;;5036707;28;20040;-70
2022/09/14 10:23:16;;;;;;;5.57;1.25;;;19.90;77.20;;;;;;5032319;28;20139;-71
2022/09/14 10:25:46;;;;;;;6.40;1.30;;;19.90;76.30;;;;;;5032566;28;20497;-71
2022/09/14 10:28:21;;;;;;;5.53;1.65;;;20.00;77.00;;;;;;5040685;28;20037;-71
2022/09/14 10:31:06;;;;;;;8.80;1.50;;;20.10;76.00;;;;;;5042764;28;20037;-69
2022/09/14 10:33:34;;;;;;;4.05;1.40;;;20.20;75.30;;;;;;5037630;28;20120;-70
2022/09/14 10:36:14;;;;;;;6.60;1.92;;;20.20;75.50;;;;;;5038609;28;20523;-70
2022/09/14 10:38:44;;;;;;;5.60;1.20;;;20.10;76.00;;;;;;5037221;28;20029;-71
2022/09/14 10:41:29;;;;;;;5.40;1.50;;;20.10;75.90;;;;;;5034355;28;20500;-71
2022/09/14 10:44:13;;;;;;;7.10;1.05;;;20.10;76.10;;;;;;5032215;28;20072;-71
2022/09/14 10:47:01;;;;;;;8.05;1.42;;;20.10;76.30;;;;;;5035812;28;20382;-71
2022/09/14 10:49:46;;;;;;;5.43;1.17;;;20.20;75.50;;;;;;5032874;28;20029;-71
2022/09/14 10:52:31;;;;;;;6.15;1.80;;;20.20;73.00;;;;;;5035955;28;20036;-71
2022/09/14 10:55:33;;;;;;;4.68;1.63;;;20.30;72.00;;;;;;5035127;28;20033;-71
2022/09/14 10:58:37;;;;;;;2.53;1.17;;;20.40;72.60;;;;;;5037581;28;20063;-71
2022/09/14 11:01:33;;;;;;;7.47;1.70;;;20.50;72.30;;;;;;5032145;28;20140;-70
2022/09/14 11:04:21;;;;;;;3.22;1.23;;;20.50;72.60;;;;;;5034799;28;20190;-70
2022/09/14 11:07:21;;;;;;;5.78;1.30;;;20.60;71.20;;;;;;5037385;28;20033;-70
2022/09/14 11:09:46;;;;;;;6.68;1.52;;;20.60;72.80;;;;;;5039224;28;20036;-70
2022/09/14 11:12:56;;;;;;;3.30;1.20;;;20.50;71.80;;;;;;5037975;28;20041;-70
2022/09/14 11:15:36;;;;;;;6.93;1.45;;;20.40;72.40;;;;;;5039856;28;20094;-70
2022/09/14 11:18:13;;;;;;;4.07;1.23;;;20.40;74.10;;;;;;5033523;28;20480;-70
2022/09/14 11:20:52;;;;;;;3.47;1.05;;;20.40;73.00;;;;;;5035840;28;20102;-71
2022/09/14 11:23:29;;;;;;;4.35;1.40;;;20.40;72.70;;;;;;5037548;28;20033;-70
2022/09/14 11:25:58;;;;;;;6.85;1.70;;;20.40;72.10;;;;;;5038196;28;20393;-71
2022/09/14 11:28:42;;;;;;;7.25;1.55;;;20.40;72.60;;;;;;5039589;28;20035;-70
2022/09/14 11:31:35;;;;;;;5.53;1.20;;;20.50;73.10;;;;;;5037694;28;20037;-71
2022/09/14 11:34:22;;;;;;;5.78;1.50;;;20.50;71.60;;;;;;5036108;28;20727;-70
2022/09/14 11:37:07;;;;;;;5.18;2.05;;;20.50;70.90;;;;;;5033047;28;20051;-70
2022/09/14 11:39:41;;;;;;;5.85;1.48;;;20.50;70.50;;;;;;5038469;28;20118;-71
2022/09/14 11:42:21;;;;;;;7.00;1.85;;;20.50;72.00;;;;;;5035719;28;20048;-70
2022/09/14 11:44:54;;;;;;;5.60;1.42;;;20.60;71.70;;;;;;5041631;28;20040;-70
2022/09/14 11:47:21;;;;;;;7.05;1.55;;;20.70;70.80;;;;;;5039544;28;20083;-70
2022/09/14 11:50:15;;;;;;;3.50;1.38;;;20.80;71.10;;;;;;5035704;28;20090;-70
2022/09/14 11:52:40;;;;;;;7.65;1.52;;;20.80;70.30;;;;;;5036002;28;20021;-70
2022/09/14 11:55:17;;;;;;;3.38;1.63;;;20.90;70.80;;;;;;5033777;28;20557;-70
2022/09/14 11:57:47;;;;;;;3.13;1.52;;;20.80;71.60;;;;;;5035370;28;20064;-70
2022/09/14 12:00:22;;;;;;;3.15;1.10;;;20.90;72.50;;;;;;5032380;28;20085;-71
2022/09/14 12:03:15;;;;;;;3.17;1.05;;;20.90;71.70;;;;;;5042135;28;20025;-70
2022/09/14 12:05:44;;;;;;;4.97;1.65;;;21.00;71.10;;;;;;5039182;28;20503;-70
2022/09/14 12:08:30;;;;;;;4.90;1.15;;;21.00;71.10;;;;;;5036691;28;20728;-70
2022/09/14 12:11:08;;;;;;;5.20;1.30;;;21.00;70.80;;;;;;5036466;28;20037;-70
2022/09/14 12:13:36;;;;;;;5.07;1.77;;;20.90;70.40;;;;;;5036376;28;20041;-71
2022/09/14 12:16:07;;;;;;;4.25;1.25;;;20.90;70.10;;;;;;5035421;28;20033;-70
2022/09/14 12:18:37;;;;;;;4.32;1.10;;;20.80;71.20;;;;;;5033565;28;20036;-70
2022/09/14 12:21:26;;;;;;;3.63;1.30;;;20.80;71.20;;;;;;5038058;28;20516;-70
2022/09/14 12:23:56;;;;;;;6.65;1.38;;;20.90;70.80;;;;;;5036846;28;20043;-70
2022/09/14 12:26:22;;;;;;;5.00;1.35;;;20.90;71.30;;;;;;5038014;28;20539;-71
2022/09/14 12:28:51;;;;;;;5.35;1.35;;;21.00;70.60;;;;;;5035351;28;20025;-71
2022/09/14 12:31:31;;;;;;;7.20;1.60;;;20.90;70.60;;;;;;5034725;28;20041;-71
2022/09/14 12:34:17;;;;;;;4.20;1.05;;;20.90;70.30;;;;;;5032028;28;20559;-71
2022/09/14 12:36:42;;;;;;;5.57;1.40;;;20.90;70.40;;;;;;5033851;28;20115;-71
2022/09/14 12:39:25;;;;;;;5.60;1.08;;;20.90;71.70;;;;;;5033948;28;20032;-71
2022/09/14 12:41:51;;;;;;;3.00;1.10;;;21.00;69.60;;;;;;5040345;28;20440;-71
2022/09/14 12:44:32;;;;;;;3.92;1.70;;;21.00;70.50;;;;;;5038528;28;20056;-70
2022/09/14 12:47:23;;;;;;;3.60;1.30;;;21.00;70.70;;;;;;5035234;28;20076;-70
2022/09/14 12:49:56;;;;;;;2.28;1.20;;;21.00;69.60;;;;;;5031932;28;20028;-71
2022/09/14 12:52:43;;;;;;;6.53;1.38;;;21.00;70.50;;;;;;5038497;28;20439;-71
2022/09/14 12:55:43;;;;;;;3.67;1.20;;;20.90;70.40;;;;;;5031274;28;20025;-71
2022/09/14 12:58:41;;;;;;;5.10;1.20;;;20.90;70.20;;;;;;5034253;28;20092;-71
2022/09/14 13:01:22;;;;;;;6.65;1.20;;;20.90;71.20;;;;;;5039753;28;20041;-70
2022/09/14 13:03:53;;;;;;;4.78;1.27;;;20.90;71.10;;;;;;5041104;28;20037;-71
2022/09/14 13:06:22;;;;;;;4.90;1.42;;;20.80;70.50;;;;;;5040232;28;20034;-72
2022/09/14 13:08:51;;;;;;;2.13;1.05;;;20.70;70.10;;;;;;5037810;28;20540;-71
2022/09/14 13:11:20;;;;;;;5.82;1.15;;;20.70;69.70;;;;;;5040503;28;20752;-70
2022/09/14 13:13:47;;;;;;;3.08;1.10;;;20.60;71.00;;;;;;5035858;28;20035;-71
2022/09/14 13:16:21;;;;;;;3.58;0.90;;;20.60;71.50;;;;;;5039063;28;20033;-69